Miami, Florida
Traffic Map
Current Weather Conditions
Miami, Florida
Broken Clouds
Broken Clouds
21°
Feels Like: 21°
Wind Chill: 21° Ceiling: 25000
Heat Index: 21° Visibility: 10mi
Dew Point: Wind: 14mph
Humidity: 46% Direction: 40° (NE)
Pressure: 30.27in Gusts: 22mph
Raw Report DataKMIA 291553Z 04012G19KT 10SM SCT044 BKN250 21/09 A3027 RMK AO2 SLP251 T02110089
Traffic Incident Summary
Active as of:
Severity:
Category:
InformationThere was an issue retrieving the traffic information for this location. Please try a different location or try again shortly.
Advertisements
Track Severe Weather on mobile